KAEX

Alexandria International Airport

Alexandria, Louisiana, USA
METAR KAEX 251853Z 17005KT 10SM -RA OVC095 27/23 A2997 RMK AO2 RAB28 SLP150 P0000 T02720228
Observed Flight Rules
Sep-25 @ 18:53 UTC (10 minutes ago) Visual Flight Rules
Wind Visibility Clouds Conditions
170° at 5 knots 10 miles
  • Overcast at 9,500' AGL
  • Light Rain
Temperatures Readings Precipitation
Current 27°C / 81°F
Dewpoint 23°C / 73°F
Humidity 79%
Altimeter 29.97" Hg
Pressure 1015 hPa
Elevation 27
Current Rain 0.005
METAR KAEX 251853Z 17005KT 10SM -RA OVC095 27/23 A2997 RMK AO2 RAB28 SLP150 P0000 T02720228
Observed Flight Rules
Sep-25 @ 18:53 UTC
(10 minutes ago)
VFR
Wind Visibility
170° at 5 knots 10 miles
Clouds
  • Overcast at 9,500' AGL
Conditions
  • Light Rain
Temperature Dewpoint
27°C / 81°F 23°C / 73°F
Humidity Altimeter Pressure
79% 29.97" Hg 1015 hPa
Current Rain
0.005